createdAt,value
2023-05-05T00:00:27.320Z,101424.09
2023-05-05T00:00:58.845Z,101428.41
2023-05-05T00:01:30.379Z,101429.59
2023-05-05T00:02:01.882Z,101435.06
2023-05-05T00:02:33.397Z,101432.31
2023-05-05T00:03:04.989Z,101437.81
2023-05-05T00:03:36.586Z,101432.31
2023-05-05T00:04:08.140Z,101427.63
2023-05-05T00:04:39.615Z,101433.13
2023-05-05T00:05:11.210Z,101429.19
2023-05-05T00:05:42.623Z,101425.66
2023-05-05T00:06:14.622Z,101432.31
2023-05-05T00:06:46.285Z,101429.19
2023-05-05T00:07:17.894Z,101432.72
2023-05-05T00:07:49.754Z,101429.19
2023-05-05T00:08:22.449Z,101432.72
2023-05-05T00:08:54.282Z,101428.38
2023-05-05T00:09:25.714Z,101422.13
2023-05-05T00:09:57.200Z,101422.13
2023-05-05T00:10:28.563Z,101420.53
2023-05-05T00:11:00.082Z,101421.72
2023-05-05T00:11:31.480Z,101424.06
2023-05-05T00:12:03.020Z,101426.44
2023-05-05T00:12:34.483Z,101431.16
2023-05-05T00:13:06.648Z,101427.63
2023-05-05T00:13:38.616Z,101431.16
2023-05-05T00:14:09.989Z,101437.41
2023-05-05T00:14:41.549Z,101431.16
2023-05-05T00:15:13.063Z,101428.41
2023-05-05T00:15:46.943Z,101431.16
2023-05-05T00:16:18.506Z,101431.16
2023-05-05T00:16:49.863Z,101427.63
2023-05-05T00:17:21.745Z,101436.63
2023-05-05T00:17:53.419Z,101439.38
2023-05-05T00:18:24.950Z,101432.72
2023-05-05T00:18:56.454Z,101436.25
2023-05-05T00:19:27.846Z,101437.41
2023-05-05T00:19:59.700Z,101437.03
2023-05-05T00:20:31.531Z,101430.75
2023-05-05T00:21:04.445Z,101428.00
2023-05-05T00:21:35.906Z,101427.22
2023-05-05T00:22:07.375Z,101428.00
2023-05-05T00:22:38.771Z,101426.06
2023-05-05T00:23:10.586Z,101425.66
2023-05-05T00:23:41.935Z,101429.19
2023-05-05T00:24:13.347Z,101425.66
2023-05-05T00:24:44.790Z,101425.25
2023-05-05T00:25:16.240Z,101429.94
2023-05-05T00:25:47.738Z,101420.53
2023-05-05T00:26:19.204Z,101420.53
2023-05-05T00:26:51.030Z,101414.28
2023-05-05T00:27:22.422Z,101417.00
2023-05-05T00:27:53.779Z,101422.50
2023-05-05T00:28:25.254Z,101423.28
2023-05-05T00:28:57.122Z,101425.25
2023-05-05T00:29:28.488Z,101421.34
2023-05-05T00:29:59.847Z,101415.06
2023-05-05T00:30:31.663Z,101420.53
2023-05-05T00:31:03.041Z,101418.59
2023-05-05T00:31:34.602Z,101415.84
2023-05-05T00:32:06.335Z,101415.84
2023-05-05T00:32:38.002Z,101413.88
2023-05-05T00:33:09.444Z,101412.31
2023-05-05T00:33:40.857Z,101416.63
2023-05-05T00:34:12.306Z,101405.66
2023-05-05T00:34:43.961Z,101417.81
2023-05-05T00:35:16.344Z,101413.47
2023-05-05T00:35:47.694Z,101411.53
2023-05-05T00:36:19.327Z,101406.03
2023-05-05T00:36:50.697Z,101403.28
2023-05-05T00:37:22.223Z,101400.53
2023-05-05T00:37:53.740Z,101402.13
2023-05-05T00:38:25.066Z,101403.28
2023-05-05T00:38:56.540Z,101404.06
2023-05-05T00:39:27.905Z,101406.81
2023-05-05T00:39:59.440Z,101404.47
2023-05-05T00:40:31.496Z,101409.16
2023-05-05T00:41:02.962Z,101413.88
2023-05-05T00:41:34.358Z,101415.44
2023-05-05T00:42:05.819Z,101411.53
2023-05-05T00:42:47.999Z,101412.31
2023-05-05T00:43:19.542Z,101417.78
2023-05-05T00:43:52.417Z,101422.88
2023-05-05T00:44:41.390Z,101427.19
2023-05-05T00:45:16.751Z,101422.88
2023-05-05T00:45:56.350Z,101426.03
2023-05-05T00:46:30.318Z,101434.63
2023-05-05T00:47:01.703Z,101429.16
2023-05-05T00:47:33.372Z,101438.56
2023-05-05T00:48:06.545Z,101437.81
2023-05-05T00:48:38.124Z,101433.06
2023-05-05T00:49:09.973Z,101440.53
2023-05-05T00:49:41.460Z,101437.81
2023-05-05T00:50:22.654Z,101438.56
2023-05-05T00:50:54.238Z,101435.81
2023-05-05T00:51:26.295Z,101436.59
2023-05-05T00:51:57.790Z,101441.31
2023-05-05T00:52:29.562Z,101438.97
2023-05-05T00:53:02.964Z,101441.72
2023-05-05T00:53:34.785Z,101437.03
2023-05-05T00:54:06.151Z,101436.22
2023-05-05T00:54:38.217Z,101440.94
2023-05-05T00:55:10.273Z,101442.50
2023-05-05T00:55:41.796Z,101441.72
2023-05-05T00:56:14.320Z,101442.91
2023-05-05T00:56:45.821Z,101435.44
2023-05-05T00:57:17.776Z,101446.41
2023-05-05T00:57:49.976Z,101438.97
2023-05-05T00:58:21.489Z,101441.72
2023-05-05T00:58:53.348Z,101438.97
2023-05-05T00:59:25.161Z,101430.75
2023-05-05T00:59:58.703Z,101432.31
2023-05-05T01:00:30.932Z,101435.44
2023-05-05T01:01:02.342Z,101434.66
2023-05-05T01:01:33.980Z,101435.44
2023-05-05T01:02:05.673Z,101433.09
2023-05-05T01:02:37.191Z,101429.16
2023-05-05T01:03:08.761Z,101437.41
2023-05-05T01:03:43.928Z,101428.78
2023-05-05T01:04:15.620Z,101432.31
2023-05-05T01:04:47.023Z,101424.47
2023-05-05T01:05:20.114Z,101422.09
2023-05-05T01:05:57.062Z,101427.59
2023-05-05T01:06:38.234Z,101425.63
2023-05-05T01:07:37.130Z,101424.44
2023-05-05T01:08:26.687Z,101422.50
2023-05-05T01:09:17.090Z,101424.84
2023-05-05T01:10:11.022Z,101429.91
2023-05-05T01:10:56.436Z,101423.66
2023-05-05T01:12:24.650Z,101426.41
2023-05-05T01:13:23.354Z,101422.88
2023-05-05T01:14:12.141Z,101427.94
2023-05-05T01:14:59.326Z,101428.34
2023-05-05T01:15:41.265Z,101425.59
2023-05-05T01:16:23.308Z,101430.69
2023-05-05T01:17:08.138Z,101424.81
2023-05-05T01:17:51.644Z,101427.19
2023-05-05T01:18:35.193Z,101423.66
2023-05-05T01:19:48.779Z,101424.44
2023-05-05T01:20:38.557Z,101429.94
2023-05-05T01:21:19.100Z,101427.19
2023-05-05T01:21:55.895Z,101432.25
2023-05-05T01:22:36.530Z,101430.69
2023-05-05T01:23:13.500Z,101428.34
2023-05-05T01:23:58.955Z,101431.88
2023-05-05T01:25:11.666Z,101429.91
2023-05-05T01:26:08.441Z,101435.00
2023-05-05T01:27:19.708Z,101433.06
2023-05-05T01:28:18.454Z,101431.88
2023-05-05T01:29:07.793Z,101433.44
2023-05-05T01:30:16.676Z,101436.97
2023-05-05T01:31:21.618Z,101435.03
2023-05-05T01:32:02.806Z,101442.09
2023-05-05T01:32:40.936Z,101433.84
2023-05-05T01:33:16.262Z,101435.03
2023-05-05T01:33:58.244Z,101444.84
2023-05-05T01:34:36.950Z,101443.28
2023-05-05T01:35:26.684Z,101435.44
2023-05-05T01:36:07.350Z,101446.78
2023-05-05T01:36:44.368Z,101448.38
2023-05-05T01:37:22.684Z,101444.44
2023-05-05T01:38:05.619Z,101446.81
2023-05-05T01:38:41.110Z,101450.34
2023-05-05T01:39:16.063Z,101453.47
2023-05-05T01:39:51.914Z,101452.31
2023-05-05T01:40:27.931Z,101451.13
2023-05-05T01:41:12.992Z,101450.75
2023-05-05T01:41:48.089Z,101449.56
2023-05-05T01:42:22.256Z,101449.56
2023-05-05T01:42:55.040Z,101456.63
2023-05-05T01:43:30.711Z,101455.84
2023-05-05T01:44:06.007Z,101454.28
2023-05-05T01:44:38.108Z,101451.13
2023-05-05T01:45:13.310Z,101448.41
2023-05-05T01:45:46.692Z,101450.75
2023-05-05T01:46:21.586Z,101444.88
2023-05-05T01:46:54.603Z,101451.16
2023-05-05T01:47:27.651Z,101444.88
2023-05-05T01:48:00.547Z,101437.41
2023-05-05T01:48:33.387Z,101442.13
2023-05-05T01:49:06.513Z,101451.16
2023-05-05T01:49:38.562Z,101451.16
2023-05-05T01:50:11.919Z,101447.22
2023-05-05T01:50:46.571Z,101448.00
2023-05-05T01:51:22.134Z,101449.97
2023-05-05T01:51:56.082Z,101449.97
2023-05-05T01:52:29.453Z,101454.28
2023-05-05T01:53:03.219Z,101454.28
2023-05-05T01:53:36.263Z,101462.53
2023-05-05T01:54:09.122Z,101462.13
2023-05-05T01:54:42.230Z,101455.88
2023-05-05T01:55:16.426Z,101460.16
2023-05-05T01:55:50.168Z,101458.59
2023-05-05T01:56:25.132Z,101458.19
2023-05-05T01:56:58.668Z,101460.56
2023-05-05T01:57:33.178Z,101459.75
2023-05-05T01:58:07.322Z,101464.88
2023-05-05T01:58:41.718Z,101466.03
2023-05-05T01:59:13.708Z,101467.59
2023-05-05T01:59:45.213Z,101469.19
2023-05-05T02:00:19.426Z,101473.09
2023-05-05T02:00:51.799Z,101472.72
2023-05-05T02:01:26.433Z,101477.81
2023-05-05T02:02:00.771Z,101483.31
2023-05-05T02:02:33.944Z,101478.59
2023-05-05T02:03:08.445Z,101475.06
2023-05-05T02:03:41.503Z,101484.88
2023-05-05T02:04:14.866Z,101481.75
2023-05-05T02:04:48.871Z,101479.78
2023-05-05T02:05:22.773Z,101480.97
2023-05-05T02:05:55.225Z,101482.53
2023-05-05T02:06:29.356Z,101483.72
2023-05-05T02:07:03.298Z,101488.03
2023-05-05T02:07:35.751Z,101479.00
2023-05-05T02:08:09.435Z,101474.28
2023-05-05T02:08:41.796Z,101473.13
2023-05-05T02:09:15.114Z,101471.53
2023-05-05T02:09:48.071Z,101467.22
2023-05-05T02:10:19.427Z,101467.22
2023-05-05T02:10:52.139Z,101465.28
2023-05-05T02:11:23.846Z,101459.00
2023-05-05T02:11:58.171Z,101462.53
2023-05-05T02:12:31.594Z,101457.41
2023-05-05T02:13:04.514Z,101448.00
2023-05-05T02:13:37.738Z,101442.50
2023-05-05T02:14:11.159Z,101433.50
2023-05-05T02:14:44.024Z,101432.72
2023-05-05T02:15:16.570Z,101433.09
2023-05-05T02:15:50.062Z,101435.44
2023-05-05T02:16:23.681Z,101426.44
2023-05-05T02:16:57.096Z,101426.44
2023-05-05T02:17:29.901Z,101426.03
2023-05-05T02:18:02.781Z,101427.63
2023-05-05T02:18:36.106Z,101419.38
2023-05-05T02:19:08.686Z,101422.91
2023-05-05T02:19:43.067Z,101418.19
2023-05-05T02:20:16.071Z,101414.66
2023-05-05T02:20:47.768Z,101417.41
2023-05-05T02:21:20.021Z,101409.97
2023-05-05T02:21:51.477Z,101413.88
2023-05-05T02:22:22.995Z,101413.88
2023-05-05T02:22:54.508Z,101417.41
2023-05-05T02:23:26.382Z,101417.41
2023-05-05T02:23:58.429Z,101426.81
2023-05-05T02:24:30.908Z,101428.00
2023-05-05T02:25:03.215Z,101426.81
2023-05-05T02:25:41.906Z,101430.34
2023-05-05T02:26:16.732Z,101433.09
2023-05-05T02:26:50.512Z,101440.56
2023-05-05T02:27:24.318Z,101440.16
2023-05-05T02:27:59.577Z,101448.41
2023-05-05T02:28:42.703Z,101444.09
2023-05-05T02:29:20.208Z,101446.84
2023-05-05T02:30:01.386Z,101453.91
2023-05-05T02:30:36.295Z,101444.88
2023-05-05T02:31:09.584Z,101448.00
2023-05-05T02:31:50.655Z,101446.44
2023-05-05T02:32:33.600Z,101441.72
2023-05-05T02:33:11.617Z,101443.69
2023-05-05T02:33:45.700Z,101436.63
2023-05-05T02:34:22.330Z,101439.38
2023-05-05T02:34:54.736Z,101437.03
2023-05-05T02:35:35.320Z,101435.06
2023-05-05T02:36:15.965Z,101437.03
2023-05-05T02:36:51.741Z,101436.22
2023-05-05T02:37:25.521Z,101431.91
2023-05-05T02:38:02.468Z,101435.44
2023-05-05T02:38:37.169Z,101441.72
2023-05-05T02:39:14.407Z,101440.16
2023-05-05T02:39:58.315Z,101444.84
2023-05-05T02:40:33.002Z,101448.78
2023-05-05T02:41:06.233Z,101444.84
2023-05-05T02:41:39.841Z,101438.97
2023-05-05T02:42:15.428Z,101445.25
2023-05-05T02:42:49.674Z,101438.19
2023-05-05T02:43:23.133Z,101449.59
2023-05-05T02:43:57.820Z,101451.53
2023-05-05T02:44:31.778Z,101447.22
2023-05-05T02:45:10.040Z,101447.63
2023-05-05T02:45:41.754Z,101441.34
2023-05-05T02:46:13.184Z,101444.47
2023-05-05T02:46:45.319Z,101441.72
2023-05-05T02:47:16.843Z,101448.78
2023-05-05T02:47:48.524Z,101443.28
2023-05-05T02:48:20.344Z,101440.53
2023-05-05T02:48:51.785Z,101438.97
2023-05-05T02:49:23.229Z,101444.84
2023-05-05T02:49:54.639Z,101439.75
2023-05-05T02:50:26.012Z,101445.25
2023-05-05T02:50:57.517Z,101445.63
2023-05-05T02:51:28.939Z,101442.09
2023-05-05T02:52:01.071Z,101442.09
2023-05-05T02:52:33.356Z,101440.13
2023-05-05T02:53:05.019Z,101436.59
2023-05-05T02:53:36.756Z,101439.75
2023-05-05T02:54:08.415Z,101436.22
2023-05-05T02:54:40.321Z,101428.38
2023-05-05T02:55:12.542Z,101433.06
2023-05-05T02:55:51.769Z,101431.91
2023-05-05T02:56:44.390Z,101433.88
2023-05-05T02:57:19.813Z,101434.25
2023-05-05T02:58:00.588Z,101436.22
2023-05-05T02:58:46.107Z,101433.88
2023-05-05T02:59:36.494Z,101437.78
2023-05-05T03:00:18.239Z,101439.34
2023-05-05T03:00:58.534Z,101436.97
2023-05-05T03:02:11.472Z,101438.16
2023-05-05T03:03:01.705Z,101436.97
2023-05-05T03:03:44.601Z,101431.88
2023-05-05T03:04:25.538Z,101432.25
2023-05-05T03:05:06.562Z,101431.09
2023-05-05T03:05:45.788Z,101438.13
2023-05-05T03:06:19.755Z,101441.25
2023-05-05T03:06:55.482Z,101444.38
2023-05-05T03:07:37.519Z,101442.81
2023-05-05T03:08:27.483Z,101451.03
2023-05-05T03:09:08.400Z,101451.41
2023-05-05T03:10:02.947Z,101445.53
2023-05-05T03:11:04.544Z,101445.13
2023-05-05T03:11:40.517Z,101443.94
2023-05-05T03:12:18.024Z,101453.34
2023-05-05T03:12:54.196Z,101450.97
2023-05-05T03:13:28.185Z,101453.34
2023-05-05T03:14:16.934Z,101449.81
2023-05-05T03:14:54.067Z,101451.78
2023-05-05T03:15:30.568Z,101447.47
2023-05-05T03:16:06.791Z,101452.56
2023-05-05T03:16:40.751Z,101456.09
2023-05-05T03:17:13.400Z,101451.75
2023-05-05T03:17:46.506Z,101456.84
2023-05-05T03:18:19.919Z,101458.03
2023-05-05T03:18:52.508Z,101456.44
2023-05-05T03:19:24.860Z,101456.81
2023-05-05T03:19:57.079Z,101458.41
2023-05-05T03:20:29.640Z,101456.03
2023-05-05T03:21:08.389Z,101456.03
2023-05-05T03:21:40.484Z,101446.25
2023-05-05T03:22:12.465Z,101451.72
2023-05-05T03:22:44.622Z,101460.34
2023-05-05T03:23:20.696Z,101460.72
2023-05-05T03:23:52.428Z,101452.88
2023-05-05T03:24:23.968Z,101459.16
2023-05-05T03:24:55.391Z,101458.00
2023-05-05T03:25:47.390Z,101453.69
2023-05-05T03:26:18.855Z,101464.25
2023-05-05T03:26:50.238Z,101460.31
2023-05-05T03:27:21.942Z,101463.06
2023-05-05T03:27:53.328Z,101466.97
2023-05-05T03:28:24.717Z,101462.66
2023-05-05T03:28:56.556Z,101469.28
2023-05-05T03:29:29.463Z,101470.47
2023-05-05T03:30:01.028Z,101466.16
2023-05-05T03:30:32.449Z,101470.06
2023-05-05T03:31:04.066Z,101472.03
2023-05-05T03:31:35.895Z,101471.22
2023-05-05T03:32:07.964Z,101477.09
2023-05-05T03:32:39.378Z,101473.56
2023-05-05T03:33:11.780Z,101485.28
2023-05-05T03:33:43.250Z,101480.22
2023-05-05T03:34:14.717Z,101477.88
2023-05-05T03:34:46.209Z,101474.72
2023-05-05T03:35:17.914Z,101478.25
2023-05-05T03:35:49.307Z,101477.47
2023-05-05T03:36:20.754Z,101482.94
2023-05-05T03:36:52.355Z,101480.59
2023-05-05T03:37:23.851Z,101478.63
2023-05-05T03:37:58.124Z,101480.97
2023-05-05T03:38:29.459Z,101473.91
2023-05-05T03:39:01.059Z,101471.94
2023-05-05T03:39:32.467Z,101477.81
2023-05-05T03:40:03.986Z,101474.28
2023-05-05T03:40:43.536Z,101460.97
2023-05-05T03:41:15.834Z,101469.19
2023-05-05T03:41:47.442Z,101462.13
2023-05-05T03:42:18.880Z,101462.91
2023-05-05T03:42:50.478Z,101456.66
2023-05-05T03:43:21.900Z,101455.88
2023-05-05T03:43:53.615Z,101451.53
2023-05-05T03:44:25.168Z,101451.53
2023-05-05T03:44:57.332Z,101455.06
2023-05-05T03:45:28.736Z,101452.34
2023-05-05T03:46:00.183Z,101450.38
2023-05-05T03:46:31.606Z,101456.28
2023-05-05T03:47:03.015Z,101457.06
2023-05-05T03:47:34.520Z,101457.44
2023-05-05T03:48:06.593Z,101459.38
2023-05-05T03:48:38.021Z,101465.66
2023-05-05T03:49:09.783Z,101462.13
2023-05-05T03:49:41.391Z,101464.09
2023-05-05T03:50:12.779Z,101464.09
2023-05-05T03:50:48.772Z,101472.31
2023-05-05T03:51:20.181Z,101474.25
2023-05-05T03:51:51.639Z,101475.03
2023-05-05T03:52:23.169Z,101468.00
2023-05-05T03:52:55.620Z,101469.53
2023-05-05T03:53:26.981Z,101471.13
2023-05-05T03:53:58.423Z,101467.97
2023-05-05T03:54:29.858Z,101473.03
2023-05-05T03:55:01.315Z,101475.78
2023-05-05T03:55:32.957Z,101472.28
2023-05-05T03:56:04.914Z,101482.84
2023-05-05T03:56:36.327Z,101482.44
2023-05-05T03:57:07.720Z,101490.25
2023-05-05T03:57:39.167Z,101494.94
2023-05-05T03:58:11.136Z,101498.84
2023-05-05T03:58:42.649Z,101498.84
2023-05-05T03:59:14.057Z,101499.63
2023-05-05T03:59:45.641Z,101503.16
2023-05-05T04:00:17.294Z,101505.13
2023-05-05T04:00:48.711Z,101498.06
2023-05-05T04:01:20.342Z,101507.06
2023-05-05T04:01:51.733Z,101496.09
2023-05-05T04:02:23.191Z,101507.47
2023-05-05T04:02:54.841Z,101502.38
2023-05-05T04:03:26.484Z,101505.13
2023-05-05T04:03:57.957Z,101503.16
2023-05-05T04:04:29.402Z,101494.16
2023-05-05T04:05:00.926Z,101498.84
2023-05-05T04:05:32.391Z,101500.81
2023-05-05T04:06:04.083Z,101496.09
2023-05-05T04:06:35.427Z,101501.97
2023-05-05T04:07:06.754Z,101510.56
2023-05-05T04:07:38.183Z,101500.38
2023-05-05T04:08:09.900Z,101504.28
2023-05-05T04:08:41.534Z,101509.78
2023-05-05T04:09:13.791Z,101518.78
2023-05-05T04:09:45.507Z,101513.31
2023-05-05T04:10:17.060Z,101513.69
2023-05-05T04:10:48.492Z,101518.78
2023-05-05T04:11:22.460Z,101523.84
2023-05-05T04:11:53.891Z,101528.16
2023-05-05T04:12:25.365Z,101526.59
2023-05-05T04:12:56.947Z,101525.81
2023-05-05T04:13:29.490Z,101525.81
2023-05-05T04:14:00.954Z,101525.81
2023-05-05T04:14:32.494Z,101522.28
2023-05-05T04:15:04.204Z,101529.72
2023-05-05T04:15:35.670Z,101525.03
2023-05-05T04:16:08.703Z,101523.44
2023-05-05T04:16:40.241Z,101529.72
2023-05-05T04:17:11.653Z,101526.97
2023-05-05T04:17:43.078Z,101528.13
2023-05-05T04:18:14.480Z,101533.63
2023-05-05T04:18:45.832Z,101534.41
2023-05-05T04:19:17.621Z,101530.09
2023-05-05T04:19:49.190Z,101529.69
2023-05-05T04:20:21.413Z,101529.69
2023-05-05T04:20:53.090Z,101532.41
2023-05-05T04:21:24.796Z,101530.47
2023-05-05T04:21:56.340Z,101530.84
2023-05-05T04:22:27.721Z,101531.25
2023-05-05T04:22:59.265Z,101532.41
2023-05-05T04:23:30.857Z,101534.00
2023-05-05T04:24:02.257Z,101533.22
2023-05-05T04:24:33.618Z,101538.31
2023-05-05T04:25:05.350Z,101535.16
2023-05-05T04:25:37.029Z,101537.13
2023-05-05T04:26:08.391Z,101537.53
2023-05-05T04:26:39.804Z,101538.69
2023-05-05T04:27:11.195Z,101542.59
2023-05-05T04:27:42.692Z,101533.97
2023-05-05T04:28:14.187Z,101537.50
2023-05-05T04:28:45.938Z,101542.19
2023-05-05T04:29:17.691Z,101537.50
2023-05-05T04:29:49.086Z,101532.78
2023-05-05T04:30:20.676Z,101538.28
2023-05-05T04:30:52.187Z,101538.28
2023-05-05T04:31:23.927Z,101535.53
2023-05-05T04:31:56.198Z,101543.75
2023-05-05T04:32:27.606Z,101541.81
2023-05-05T04:32:59.044Z,101542.19
2023-05-05T04:33:30.724Z,101544.91
2023-05-05T04:34:02.457Z,101544.91
2023-05-05T04:34:33.880Z,101545.69
2023-05-05T04:35:05.724Z,101555.88
2023-05-05T04:35:37.113Z,101544.91
2023-05-05T04:36:08.801Z,101555.47
2023-05-05T04:36:40.285Z,101555.47
2023-05-05T04:37:11.994Z,101555.47
2023-05-05T04:37:43.424Z,101556.63
2023-05-05T04:38:15.024Z,101559.38
2023-05-05T04:38:46.646Z,101552.72
2023-05-05T04:39:18.032Z,101553.50
2023-05-05T04:39:49.414Z,101563.69
2023-05-05T04:40:21.341Z,101558.19
2023-05-05T04:40:52.753Z,101560.94
2023-05-05T04:41:24.179Z,101564.47
2023-05-05T04:41:55.540Z,101561.72
2023-05-05T04:42:26.885Z,101557.41
2023-05-05T04:42:58.302Z,101560.16
2023-05-05T04:43:29.714Z,101557.78
2023-05-05T04:44:01.198Z,101557.78
2023-05-05T04:44:33.932Z,101561.69
2023-05-05T04:45:05.979Z,101560.91
2023-05-05T04:45:37.377Z,101554.25
2023-05-05T04:46:08.959Z,101556.22
2023-05-05T04:46:40.440Z,101557.38
2023-05-05T04:47:14.420Z,101553.84
2023-05-05T04:47:46.558Z,101559.72
2023-05-05T04:48:20.986Z,101554.59
2023-05-05T04:48:52.578Z,101556.97
2023-05-05T04:49:23.937Z,101559.72
2023-05-05T04:49:55.946Z,101561.28
2023-05-05T04:50:27.590Z,101556.59
2023-05-05T04:51:04.495Z,101560.13
2023-05-05T04:51:35.981Z,101560.91
2023-05-05T04:52:07.375Z,101564.03
2023-05-05T04:52:38.978Z,101555.81
2023-05-05T04:53:10.547Z,101564.81
2023-05-05T04:53:42.523Z,101560.13
2023-05-05T04:54:14.133Z,101566.00
2023-05-05T04:54:45.502Z,101564.06
2023-05-05T04:55:16.904Z,101564.06
2023-05-05T04:55:48.407Z,101559.38
2023-05-05T04:56:19.828Z,101560.16
2023-05-05T04:56:51.606Z,101565.25
2023-05-05T04:57:22.990Z,101564.09
2023-05-05T04:57:54.377Z,101568.78
2023-05-05T04:58:25.834Z,101570.34
2023-05-05T04:58:57.256Z,101561.75
2023-05-05T04:59:28.654Z,101567.25
2023-05-05T05:00:00.818Z,101562.94
2023-05-05T05:00:32.461Z,101566.09
2023-05-05T05:01:03.879Z,101571.19
2023-05-05T05:01:37.655Z,101572.34
2023-05-05T05:02:09.887Z,101569.19
2023-05-05T05:02:41.570Z,101578.22
2023-05-05T05:03:13.169Z,101571.19
2023-05-05T05:03:44.795Z,101571.19
2023-05-05T05:04:18.538Z,101573.50
2023-05-05T05:04:50.054Z,101577.03
2023-05-05T05:05:21.760Z,101575.88
2023-05-05T05:05:53.211Z,101571.97
2023-05-05T05:06:24.672Z,101574.34
2023-05-05T05:06:58.942Z,101571.22
2023-05-05T05:07:30.898Z,101571.22
2023-05-05T05:08:02.543Z,101572.81
2023-05-05T05:08:34.019Z,101573.59
2023-05-05T05:09:05.490Z,101575.94
2023-05-05T05:09:36.973Z,101576.75
2023-05-05T05:10:09.139Z,101581.44
2023-05-05T05:10:40.787Z,101583.78
2023-05-05T05:11:12.511Z,101588.91
2023-05-05T05:11:43.896Z,101582.25
2023-05-05T05:12:15.311Z,101582.25
2023-05-05T05:12:48.189Z,101583.03
2023-05-05T05:13:19.590Z,101589.31
2023-05-05T05:13:51.076Z,101577.19
2023-05-05T05:14:22.556Z,101586.19
2023-05-05T05:14:54.538Z,101583.06
2023-05-05T05:15:26.032Z,101584.25
2023-05-05T05:15:57.452Z,101585.41
2023-05-05T05:16:28.851Z,101582.66
2023-05-05T05:17:00.244Z,101584.25
2023-05-05T05:17:31.664Z,101581.50
2023-05-05T05:18:03.315Z,101576.03
2023-05-05T05:18:34.724Z,101574.84
2023-05-05T05:19:06.211Z,101577.22
2023-05-05T05:19:37.676Z,101579.59
2023-05-05T05:20:09.761Z,101581.16
2023-05-05T05:20:41.617Z,101581.56
2023-05-05T05:21:13.208Z,101576.50
2023-05-05T05:21:44.564Z,101580.03
2023-05-05T05:22:15.942Z,101580.81
2023-05-05T05:22:47.295Z,101582.38
2023-05-05T05:23:18.680Z,101587.50
2023-05-05T05:23:50.024Z,101578.88
2023-05-05T05:24:21.418Z,101587.91
2023-05-05T05:24:53.035Z,101576.16
2023-05-05T05:25:24.778Z,101581.63
2023-05-05T05:25:57.114Z,101583.19
2023-05-05T05:26:28.622Z,101587.53
2023-05-05T05:26:59.986Z,101590.25
2023-05-05T05:27:31.651Z,101580.47
2023-05-05T05:28:10.072Z,101579.28
2023-05-05T05:28:42.729Z,101583.63
2023-05-05T05:29:14.168Z,101589.09
2023-05-05T05:29:45.630Z,101585.94
2023-05-05T05:30:17.064Z,101591.06
2023-05-05T05:30:48.636Z,101591.06
2023-05-05T05:31:20.398Z,101588.31
2023-05-05T05:31:51.847Z,101592.25
2023-05-05T05:32:23.605Z,101588.72
2023-05-05T05:32:55.028Z,101589.13
2023-05-05T05:33:26.377Z,101592.66
2023-05-05T05:33:57.748Z,101589.53
2023-05-05T05:34:29.183Z,101589.16
2023-05-05T05:35:00.713Z,101595.44
2023-05-05T05:35:32.269Z,101589.56
2023-05-05T05:36:04.025Z,101594.25
2023-05-05T05:36:35.435Z,101589.19
2023-05-05T05:37:06.973Z,101588.00
2023-05-05T05:37:38.605Z,101586.06
2023-05-05T05:38:10.032Z,101591.16
2023-05-05T05:38:41.513Z,101591.94
2023-05-05T05:39:13.452Z,101593.53
2023-05-05T05:39:51.301Z,101588.03
2023-05-05T05:40:22.715Z,101591.16
2023-05-05T05:40:54.527Z,101594.69
2023-05-05T05:41:26.061Z,101588.81
2023-05-05T05:41:57.513Z,101587.25
2023-05-05T05:42:28.895Z,101589.22
2023-05-05T05:43:00.266Z,101590.00
2023-05-05T05:43:31.634Z,101590.00
2023-05-05T05:44:03.518Z,101595.09
2023-05-05T05:44:34.904Z,101597.84
2023-05-05T05:45:07.661Z,101602.94
2023-05-05T05:45:39.061Z,101597.09
2023-05-05T05:46:10.545Z,101600.63
2023-05-05T05:46:42.008Z,101606.13
2023-05-05T05:47:13.459Z,101607.69
2023-05-05T05:47:44.896Z,101603.00
2023-05-05T05:48:16.461Z,101601.03
2023-05-05T05:48:48.000Z,101607.72
2023-05-05T05:49:19.384Z,101607.34
2023-05-05T05:49:51.194Z,101604.59
2023-05-05T05:50:22.663Z,101609.72
2023-05-05T05:50:54.623Z,101611.28
2023-05-05T05:51:26.471Z,101608.13
2023-05-05T05:51:57.864Z,101606.16
2023-05-05T05:52:29.283Z,101609.69
2023-05-05T05:53:00.653Z,101607.75
2023-05-05T05:53:32.128Z,101614.81
2023-05-05T05:54:03.743Z,101603.06
2023-05-05T05:54:35.644Z,101610.09
2023-05-05T05:55:07.924Z,101604.25
2023-05-05T05:55:39.323Z,101603.88
2023-05-05T05:56:10.662Z,101605.81
2023-05-05T05:56:42.091Z,101608.19
2023-05-05T05:57:13.527Z,101607.00
2023-05-05T05:57:44.936Z,101612.13
2023-05-05T05:58:17.151Z,101611.72
2023-05-05T05:58:48.708Z,101613.31
2023-05-05T05:59:20.263Z,101608.22
2023-05-05T05:59:51.758Z,101611.75
2023-05-05T06:00:23.460Z,101606.28
2023-05-05T06:00:54.876Z,101609.44
2023-05-05T06:01:26.224Z,101597.69
2023-05-05T06:01:57.703Z,101611.03
2023-05-05T06:02:29.297Z,101606.28
2023-05-05T06:03:01.008Z,101603.56
2023-05-05T06:03:32.706Z,101605.91
2023-05-05T06:04:04.264Z,101607.50
2023-05-05T06:04:35.812Z,101601.63
2023-05-05T06:05:08.129Z,101610.25
2023-05-05T06:05:39.585Z,101603.59
2023-05-05T06:06:10.967Z,101605.16
2023-05-05T06:06:42.348Z,101605.16
2023-05-05T06:07:13.707Z,101602.81
2023-05-05T06:07:45.167Z,101600.09
2023-05-05T06:08:16.570Z,101597.75
2023-05-05T06:08:47.921Z,101604.81
2023-05-05T06:09:19.658Z,101608.34
2023-05-05T06:09:51.149Z,101603.25
2023-05-05T06:10:27.955Z,101611.09
2023-05-05T06:11:00.599Z,101599.75
2023-05-05T06:11:33.064Z,101604.03
2023-05-05T06:12:04.615Z,101602.06
2023-05-05T06:12:36.056Z,101605.22
2023-05-05T06:13:07.622Z,101597.78
2023-05-05T06:13:39.134Z,101602.88
2023-05-05T06:14:10.657Z,101598.97
2023-05-05T06:14:42.124Z,101591.50
2023-05-05T06:15:13.462Z,101596.63
2023-05-05T06:15:44.952Z,101597.41
2023-05-05T06:16:16.356Z,101589.56
2023-05-05T06:16:47.808Z,101582.91
2023-05-05T06:17:19.191Z,101584.50
2023-05-05T06:17:51.115Z,101592.72
2023-05-05T06:18:22.826Z,101583.31
2023-05-05T06:18:54.256Z,101591.16
2023-05-05T06:19:25.797Z,101581.75
2023-05-05T06:19:57.247Z,101588.81
2023-05-05T06:20:28.708Z,101587.22
2023-05-05T06:21:00.302Z,101581.34
2023-05-05T06:21:31.727Z,101589.22
2023-05-05T06:22:03.288Z,101591.56
2023-05-05T06:22:34.679Z,101589.22
2023-05-05T06:23:06.479Z,101586.88
2023-05-05T06:23:37.940Z,101593.94
2023-05-05T06:24:09.453Z,101589.25
2023-05-05T06:24:40.829Z,101588.84
2023-05-05T06:25:12.241Z,101591.22
2023-05-05T06:25:43.654Z,101591.22
2023-05-05T06:26:15.142Z,101591.59